메인 페이지
METAR-TAF:

METAR-TAF

공항 :

티루바난타푸람, 인도

위도: 08-28N, 경도: 076-57E, 고도: 4m

현재 날씨관측

예보는 32분 전, 23:00시(UTC)에 발표되었습니다.
무풍
온도 26°C
습도 89%
기압 1010 hPa
시정: 2500m
고도 1500ft 상공 구름 조금
고도 8000ft 상공 구름 보통
박무

METAR: VOTV 192300Z 00000KT 2500 BR FEW015 SCT080 26/24 Q1010 NOSIG

시각: 05:02 (23:32 UTC)

예보

예보는 3 시간 32분 전, 20:00시(UTC)에 발표되었습니다.
예보 대상 시간: 19일 21시부터 20일 06시까지 (UTC)
kt
시정: 2500m
고도 1500ft 상공 구름 조금
박무
전환 중
20일 04시부터 20일 05시까지 (UTC)
여러 방향의 바람 2kt
시정: 4500m
고도 1500ft 상공 구름 보통
연무

TAF: VOTV 192000Z 1921/2006 00000KT 2500 BR FEW015 BECMG 2004/2005 VRB02KT 4500 HZ SCT015

4,000개 이상의 공항 관측 자료 및 예보 (METAR 및 TAF 보고).

지도상에서 검색 가능한 기상관측소가 노란 점과 빨간 점으로 표시되어 있습니다.

기상관측소 명을 보려면 표시 위로 마우스를 이동하세요.

날씨 관측과 예보를 보려면 클릭하세요.

지도 변경 : 확대하려면 엑스 표시가 있는 녹색 버튼, 축소하려면 빼기 표시가 있는 녹색 버튼, 다음 페이지의 지도를 보려면 녹색 화살표를 클릭하세요.


METAR-TAF: